Latest Weather Observations for Melbourne (Olympic Park)

IDV60901

Issued at 11:21 am EST Tuesday 21 September 2021 (issued every 10 minutes, with the page automatically refreshed every 10 minutes)

About weather observations | Map of Melbourne area stations | Latest observations for Melbourne area | Other Formats
Station Details ID: 086338 Name: MELBOURNE (OLYMPIC PARK) Lat: -37.83 Lon: 144.98 Height: 7.53 m
Data from the previous 72 hours. | See also: Recent months at Melbourne (Olympic Park)
Date/Time
EST
Temp
°C
App
Temp
°C
Dew
Point
°C
Rel
Hum
%
Delta-T
°C
Wind Press
QNH
hPa
Press
MSL
hPa
Rain since
9am
mm
Dir  Spd
km/h
Gust
km/h
Spd
kts
Gust
kts
21/11:00am 11.8 7.9 5.2 64 3.0 S 15 26 8 14 1025.8 1025.8 0.0
21/10:30am 10.3 7.4 6.3 76 1.9 SW 11 24 6 13 1025.8 1025.8 0.0
21/10:00am 10.1 6.3 5.9 75 1.9 WSW 15 28 8 15 1025.5 1025.5 0.0
21/09:30am 9.4 6.4 6.1 80 1.5 WSW 11 19 6 10 1025.3 1025.3 0.0
21/09:00am 7.9 4.8 5.4 84 1.1 W 11 17 6 9 1025.2 1025.2 8.0
21/08:30am 8.6 5.1 5.4 80 1.4 WSW 13 22 7 12 1024.7 1024.7 7.6
21/08:00am 7.4 4.6 5.2 86 1.0 WSW 9 15 5 8 1024.0 1024.0 7.6
21/07:30am 6.8 3.2 5.0 88 0.8 W 13 24 7 13 1023.5 1023.5 7.6
21/07:00am 6.7 3.6 5.5 92 0.5 W 11 20 6 11 1023.2 1023.2 7.4
21/06:30am 7.0 4.3 5.8 92 0.5 W 9 20 5 11 1022.5 1022.5 6.8
21/06:00am 6.6 3.0 4.8 88 0.8 W 13 30 7 16 1022.2 1022.2 6.8
21/05:55am 6.5 3.2 4.8 89 0.7 W 11 19 6 10 1022.0 1022.0 6.8
21/05:37am 6.5 3.3 5.1 91 0.6 WSW 11 28 6 15 1021.8 1021.8 6.8
21/05:30am 6.6 3.7 4.9 89 0.7 WSW 9 22 5 12 1021.7 1021.7 6.2
21/05:00am 6.7 3.5 5.0 89 0.7 W 11 24 6 13 1020.8 1020.8 6.2
21/04:30am 6.7 3.5 4.9 88 0.8 W 11 19 6 10 1020.6 1020.6 5.6
21/04:00am 6.7 3.1 4.9 88 0.8 W 13 30 7 16 1020.1 1020.1 4.8
21/03:30am 6.6 3.3 4.4 86 0.9 W 11 24 6 13 1019.6 1019.6 4.6
21/03:00am 6.4 3.5 4.7 89 0.7 W 9 19 5 10 1019.4 1019.4 4.4
21/02:44am 6.4 2.7 4.6 88 0.8 W 13 26 7 14 1019.3 1019.3 4.2
21/02:34am 6.4 2.7 4.4 87 0.9 W 13 22 7 12 1019.3 1019.3 4.0
21/02:30am 6.4 2.7 4.4 87 0.9 W 13 22 7 12 1019.2 1019.2 4.0
21/02:00am 6.5 3.2 4.3 86 0.9 W 11 20 6 11 1019.0 1019.0 3.8
21/01:30am 6.6 2.8 3.8 82 1.2 W 13 24 7 13 1019.3 1019.3 3.2
21/01:00am 6.4 3.4 3.9 84 1.1 W 9 17 5 9 1018.8 1018.8 3.2
21/12:30am 6.3 2.4 3.6 83 1.1 W 13 26 7 14 1018.7 1018.7 3.0
21/12:00am 6.7 2.7 2.8 76 1.6 W 13 26 7 14 1018.2 1018.2 2.4
 
Date/Time
EST
Temp
°C
App
Temp
°C
Dew
Point
°C
Rel
Hum
%
Delta-T
°C
Wind Press
QNH
hPa
Press
MSL
hPa
Rain since
9am
mm
Dir  Spd
km/h
Gust
km/h
Spd
kts
Gust
kts
20/11:30pm 6.5 3.3 2.9 78 1.5 W 9 19 5 10 1018.3 1018.3 2.4
20/11:00pm 6.8 2.8 2.7 75 1.7 W 13 22 7 12 1017.7 1017.7 2.4
20/10:30pm 6.8 2.7 2.5 74 1.8 WNW 13 28 7 15 1017.4 1017.4 2.4
20/10:00pm 6.5 2.1 2.6 76 1.6 W 15 28 8 15 1017.2 1017.2 2.4
20/09:30pm 6.6 3.3 2.7 76 1.6 WNW 9 19 5 10 1016.8 1016.8 2.4
20/09:00pm 6.6 3.0 3.0 78 1.5 W 11 19 6 10 1016.8 1016.8 2.4
20/08:30pm 6.6 3.0 2.9 77 1.5 WNW 11 19 6 10 1016.1 1016.1 2.4
20/08:00pm 6.7 2.7 3.1 78 1.5 W 13 24 7 13 1016.0 1016.0 2.4
20/07:30pm 6.7 2.8 3.3 79 1.4 W 13 26 7 14 1015.5 1015.5 2.4
20/07:00pm 6.9 3.0 3.3 78 1.5 WNW 13 20 7 11 1014.9 1014.9 2.4
20/06:30pm 7.0 3.5 3.3 77 1.6 W 11 22 6 12 1014.3 1014.3 2.4
20/06:00pm 8.4 5.4 4.2 75 1.8 WNW 9 19 5 10 1013.8 1013.8 1.8
20/05:30pm 8.5 4.7 3.8 72 2.0 W 13 24 7 13 1013.2 1013.2 1.8
20/05:00pm 7.9 4.3 3.0 71 2.1 WNW 11 17 6 9 1012.7 1012.7 1.8
20/04:30pm 8.1 4.3 3.9 75 1.8 W 13 32 7 17 1012.7 1012.7 1.8
20/04:00pm 9.0 5.3 4.4 73 2.0 SW 13 22 7 12 1012.4 1012.4 0.8
20/03:30pm 9.2 5.1 2.5 63 2.8 W 13 30 7 16 1012.1 1012.1 0.8
20/03:00pm 10.3 5.6 3.3 62 3.0 WNW 17 37 9 20 1011.7 1011.7 0.8
20/02:30pm 11.2 6.1 3.0 57 3.6 WSW 19 33 10 18 1011.5 1011.5 0.8
20/02:00pm 10.1 6.4 4.3 67 2.6 WSW 13 30 7 16 1011.8 1011.8 0.8
20/01:30pm 10.8 6.6 4.0 63 3.0 WNW 15 26 8 14 1012.0 1012.0 0.4
20/01:00pm 9.8 5.3 4.4 69 2.4 W 17 28 9 15 1012.0 1012.0 0.4
20/12:32pm 9.5 5.8 4.7 72 2.1 SW 13 22 7 12 1012.2 1012.2 0.4
20/12:30pm 9.4 5.8 5.2 75 1.9 SW 13 22 7 12 1012.2 1012.2 0.4
20/12:17pm 8.9 4.3 5.5 79 1.5 WSW 19 44 10 24 1012.5 1012.5 0.4
20/12:00pm 12.6 7.8 2.5 50 4.4 WSW 17 30 9 16 1012.0 1012.0 0.0
20/11:30am 13.1 7.8 1.8 46 4.9 WNW 19 30 10 16 1012.1 1012.1 0.0
20/11:00am 13.1 8.9 1.8 46 4.9 WNW 13 26 7 14 1012.2 1012.2 0.0
20/10:30am 12.7 7.4 2.0 48 4.6 WSW 19 39 10 21 1012.3 1012.3 0.0
20/10:00am 12.8 8.3 2.4 49 4.5 WNW 15 33 8 18 1012.2 1012.2 0.0
20/09:30am 12.8 7.5 3.2 52 4.3 WNW 20 39 11 21 1011.8 1011.8 0.0
20/09:00am 12.4 7.6 2.6 51 4.3 WNW 17 33 9 18 1011.9 1011.9 0.4
20/08:30am 12.2 7.6 3.7 56 3.8 NW 17 37 9 20 1011.8 1011.8 0.4
20/08:00am 11.8 7.1 3.3 56 3.7 WNW 17 28 9 15 1011.9 1011.9 0.4
20/07:30am 11.1 6.8 3.4 59 3.4 NNW 15 28 8 15 1011.6 1011.6 0.4
20/07:00am 10.9 6.2 3.2 59 3.4 NW 17 33 9 18 1011.6 1011.6 0.4
20/06:30am 11.0 5.9 3.1 58 3.4 NW 19 30 10 16 1011.4 1011.4 0.4
20/06:00am 11.4 7.1 3.2 57 3.6 NW 15 26 8 14 1011.3 1011.3 0.4
20/05:30am 11.6 7.8 3.9 59 3.4 NW 13 20 7 11 1010.9 1010.9 0.4
20/05:00am 12.0 7.4 3.8 57 3.7 W 17 32 9 17 1010.5 1010.5 0.4
20/04:30am 12.6 9.2 4.1 56 3.8 W 11 30 6 16 1010.2 1010.2 0.4
20/04:00am 12.7 9.8 4.7 58 3.7 W 9 15 5 8 1010.1 1010.1 0.4
20/03:30am 13.0 9.7 4.4 56 3.9 WNW 11 28 6 15 1010.0 1010.0 0.4
20/03:00am 12.9 9.9 6.0 63 3.3 NW 11 19 6 10 1009.8 1009.8 0.4
20/02:30am 12.6 9.8 6.9 68 2.7 WNW 11 24 6 13 1010.3 1010.3 0.4
20/02:00am 12.6 9.6 6.2 65 3.0 W 11 20 6 11 1010.5 1010.5 0.4
20/01:30am 13.0 10.8 7.7 70 2.6 W 9 26 5 14 1011.1 1011.1 0.0
20/01:00am 13.7 11.5 7.9 68 2.9 WSW 9 19 5 10 1011.3 1011.3 0.0
20/12:30am 14.2 11.8 8.6 69 2.8 WNW 11 22 6 12 1011.3 1011.3 0.0
20/12:00am 14.5 11.9 9.5 72 2.6 W 13 19 7 10 1011.3 1011.3 0.0
 
Date/Time
EST
Temp
°C
App
Temp
°C
Dew
Point
°C
Rel
Hum
%
Delta-T
°C
Wind Press
QNH
hPa
Press
MSL
hPa
Rain since
9am
mm
Dir  Spd
km/h
Gust
km/h
Spd
kts
Gust
kts
19/11:30pm 15.2 14.1 8.4 64 3.4 N 4 11 2 6 1011.2 1011.2 0.0
19/11:00pm 15.4 13.9 8.6 64 3.5 N 6 13 3 7 1011.3 1011.3 0.0
19/10:30pm 15.4 12.6 8.6 64 3.5 NNW 13 19 7 10 1011.2 1011.2 0.0
19/10:00pm 15.4 11.2 8.4 63 3.5 N 20 30 11 16 1011.0 1011.0 0.0
19/09:30pm 15.7 12.1 8.2 61 3.8 NNW 17 30 9 16 1011.4 1011.4 0.0
19/09:00pm 15.9 11.2 7.7 58 4.1 NNW 22 35 12 19 1011.6 1011.6 0.0
19/08:30pm 15.9 11.6 7.1 56 4.3 NNW 19 28 10 15 1012.0 1012.0 0.0
19/08:00pm 15.9 11.4 7.1 56 4.3 NNW 20 37 11 20 1011.9 1011.9 0.0
19/07:30pm 16.3 11.3 6.4 52 4.8 NNW 22 43 12 23 1011.7 1011.7 0.0
19/07:00pm 16.9 11.8 5.8 48 5.4 NNW 22 33 12 18 1012.2 1012.2 0.0
19/06:30pm 17.5 11.5 5.1 44 5.9 NNW 26 41 14 22 1012.1 1012.1 0.0
19/06:00pm 17.7 12.4 5.0 43 6.1 NNW 22 43 12 23 1012.0 1012.0 0.0
19/05:30pm 17.6 12.3 5.2 44 6.0 NNW 22 41 12 22 1012.0 1012.0 0.0
19/05:00pm 17.7 12.0 5.0 43 6.1 NNW 24 48 13 26 1012.0 1012.0 0.0
19/04:30pm 17.6 10.8 5.2 44 6.0 NNW 30 50 16 27 1012.0 1012.0 0.0
19/04:01pm 17.4 11.0 5.4 45 5.8 NNW 28 46 15 25 1012.2 1012.2 0.0
19/04:00pm 17.4 11.4 5.4 45 5.8 NNW 26 46 14 25 1012.1 1012.1 0.0
19/03:34pm 17.3 10.8 4.9 44 5.9 NNW 28 50 15 27 1012.5 1012.5 0.0
19/03:30pm 17.2 11.6 5.2 45 5.8 NNW 24 50 13 27 1012.6 1012.6 0.0
19/03:00pm 17.0 11.4 5.3 46 5.6 NNW 24 41 13 22 1012.9 1012.9 0.0
19/02:30pm 16.8 10.8 5.1 46 5.6 NNW 26 44 14 24 1013.3 1013.3 0.0
19/02:00pm 16.3 10.0 5.6 49 5.1 N 28 46 15 25 1013.9 1013.9 0.0
19/01:57pm 16.2 9.9 5.5 49 5.1 N 28 46 15 25 1013.9 1013.9 0.0
19/01:30pm 15.8 9.1 5.4 50 5.0 NNW 30 44 16 24 1014.5 1014.5 0.0
19/01:02pm 15.7 9.4 5.6 51 4.8 NNW 28 46 15 25 1014.8 1014.8 0.0
19/01:00pm 15.6 8.9 5.5 51 4.8 NNW 30 46 16 25 1014.9 1014.9 0.0
19/12:30pm 15.5 10.3 5.7 52 4.7 NNW 22 35 12 19 1015.6 1015.6 0.0
19/12:00pm 15.0 9.4 5.5 53 4.5 NNW 24 35 13 19 1015.7 1015.7 0.0
19/11:36am 14.4 8.0 5.2 54 4.3 NNW 28 48 15 26 1015.9 1015.9 0.0
19/11:30am 14.4 8.4 5.2 54 4.3 NNW 26 41 14 22 1015.9 1015.9 0.0
19/11:00am 13.2 8.0 5.4 59 3.6 N 22 35 12 19 1016.5 1016.5 0.0
19/10:30am 12.6 6.3 5.5 62 3.3 N 28 46 15 25 1016.9 1016.9 0.0
19/10:22am 12.3 5.9 5.0 61 3.4 N 28 46 15 25 1016.9 1016.9 0.0
19/10:00am 12.6 6.9 5.1 60 3.5 N 24 39 13 21 1016.9 1016.9 0.0
19/09:30am 12.1 6.9 5.5 64 3.1 N 22 33 12 18 1017.3 1017.3 0.0
19/09:00am 10.7 5.4 5.0 68 2.6 N 22 35 12 19 1017.4 1017.4 0.8
19/08:30am 10.1 5.3 4.7 69 2.4 N 19 33 10 18 1017.3 1017.3 0.8
19/08:00am 9.9 5.5 4.5 69 2.4 N 17 28 9 15 1017.5 1017.5 0.8
19/07:30am 10.2 5.8 4.6 68 2.5 N 17 28 9 15 1017.9 1017.9 0.8
19/07:00am 10.3 6.3 4.7 68 2.5 N 15 24 8 13 1017.8 1017.8 0.8
19/06:30am 10.1 6.4 4.7 69 2.4 N 13 20 7 11 1017.5 1017.5 0.8
19/06:00am 9.9 6.2 4.5 69 2.4 N 13 20 7 11 1017.4 1017.4 0.8
19/05:30am 9.8 5.7 4.2 68 2.5 N 15 22 8 12 1017.2 1017.2 0.8
19/05:00am 9.8 5.5 3.5 65 2.7 N 15 22 8 12 1017.2 1017.2 0.8
19/04:30am 10.2 5.6 3.5 63 2.9 N 17 32 9 17 1017.0 1017.0 0.8
19/04:00am 10.8 6.1 3.1 59 3.3 N 17 26 9 14 1017.2 1017.2 0.8
19/03:30am 11.1 6.8 3.2 58 3.5 N 15 24 8 13 1017.2 1017.2 0.8
19/03:00am 10.8 6.0 2.6 57 3.5 N 17 28 9 15 1017.1 1017.1 0.8
19/02:30am 10.9 6.1 2.7 57 3.5 N 17 32 9 17 1017.5 1017.5 0.8
19/02:00am 10.4 6.4 3.0 60 3.2 N 13 20 7 11 1017.8 1017.8 0.8
19/01:30am 10.2 5.5 3.0 61 3.1 N 17 22 9 12 1018.2 1018.2 0.8
19/01:00am 9.5 4.8 3.3 65 2.7 N 17 22 9 12 1018.7 1018.7 0.8
19/12:30am 9.9 5.7 3.6 65 2.7 N 15 22 8 12 1018.7 1018.7 0.8
19/12:00am 10.2 7.7 4.8 69 2.4 N 7 17 4 9 1018.8 1018.8 0.8
 
Date/Time
EST
Temp
°C
App
Temp
°C
Dew
Point
°C
Rel
Hum
%
Delta-T
°C
Wind Press
QNH
hPa
Press
MSL
hPa
Rain since
9am
mm
Dir  Spd
km/h
Gust
km/h
Spd
kts
Gust
kts
18/11:30pm 10.5 7.6 4.4 66 2.7 N 9 15 5 8 1019.0 1019.0 0.8
18/11:00pm 10.5 7.6 4.9 68 2.5 N 9 13 5 7 1019.2 1019.2 0.8
18/10:30pm 9.7 7.5 5.5 75 1.9 NNW 6 9 3 5 1019.3 1019.3 0.8
18/10:00pm 10.5 7.8 5.5 71 2.3 N 9 13 5 7 1019.1 1019.1 0.8
18/09:30pm 10.4 7.7 5.8 73 2.1 NNW 9 15 5 8 1019.0 1019.0 0.8
18/09:00pm 10.5 7.9 6.3 75 2.0 N 9 13 5 7 1018.9 1018.9 0.8
18/08:30pm 10.9 7.9 6.1 72 2.2 N 11 17 6 9 1018.5 1018.5 0.8
18/08:00pm 11.1 8.5 6.0 71 2.4 N 9 15 5 8 1018.7 1018.7 0.8
18/07:30pm 11.1 8.9 6.3 72 2.2 N 7 13 4 7 1018.4 1018.4 0.8
18/07:00pm 11.3 9.0 5.8 69 2.5 NNW 7 11 4 6 1018.0 1018.0 0.8
18/06:30pm 11.6 9.4 5.5 66 2.8 WNW 6 13 3 7 1017.5 1017.5 0.8
18/06:00pm 11.7 9.0 5.6 66 2.8 NW 9 17 5 9 1017.1 1017.1 0.8
18/05:30pm 11.5 9.4 5.6 67 2.7 NW 6 15 3 8 1016.8 1016.8 0.8
18/05:00pm 11.3 7.1 5.8 69 2.5 WNW 17 32 9 17 1016.6 1016.6 0.8
18/04:30pm 11.7 8.5 5.3 65 2.9 WSW 11 20 6 11 1016.0 1016.0 0.6
18/04:04pm 11.4 8.5 6.7 73 2.2 WSW 11 22 6 12 1015.8 1015.8 0.6
18/04:00pm 11.3 8.8 6.6 73 2.2 WSW 9 20 5 11 1015.7 1015.7 0.6
18/03:52pm 10.8 6.7 6.4 74 2.1 WSW 17 39 9 21 1015.7 1015.7 0.6
18/03:30pm 14.0 10.3 4.6 53 4.3 SSW 13 28 7 15 1014.5 1014.5 0.0
18/03:00pm 15.7 10.4 1.8 39 6.1 WNW 19 32 10 17 1014.0 1014.0 0.0
18/02:30pm 15.2 9.8 1.4 39 6.0 NW 19 32 10 17 1014.1 1014.1 0.0
18/02:00pm 14.6 10.8 3.7 48 5.0 WNW 13 35 7 19 1014.1 1014.1 0.0
18/01:30pm 14.2 9.8 4.5 52 4.5 WSW 17 50 9 27 1014.0 1014.0 0.0
18/01:00pm 14.1 10.8 4.7 53 4.4 SW 11 24 6 13 1013.7 1013.7 0.0
18/12:30pm 13.0 8.5 4.2 55 4.0 SW 17 39 9 21 1013.7 1013.7 0.0
18/12:00pm 15.3 9.7 1.1 38 6.2 WNW 20 33 11 18 1013.4 1013.4 0.0
18/11:30am 15.7 11.1 1.8 39 6.1 WNW 15 28 8 15 1013.4 1013.4 0.0

Latest Capital City Observations: Canberra | Sydney | Melbourne | Brisbane | Adelaide | Perth | Hobart | Darwin

Other formats

Comma delimited format used in spreadsheet applications
http://www.bom.gov.au/fwo/IDV60901/IDV60901.95936.axf

JavaScript Object Notation format (JSON) in row-major order
http://www.bom.gov.au/fwo/IDV60901/IDV60901.95936.json

Data quality

Most of these data are generated automatically and are frequently updated. Quality checks on data are not normally performed. It is possible for incorrect values to appear. Refer to information at About Latest Weather Observations and please check the disclaimer before using these data.